createdAt,value
2018-09-03T00:00:33.931Z,3.20
2018-09-03T00:03:36.172Z,3.50
2018-09-03T00:06:38.584Z,3.47
2018-09-03T00:09:41.715Z,3.00
2018-09-03T00:12:44.027Z,3.40
2018-09-03T00:15:46.374Z,3.50
2018-09-03T00:18:48.580Z,3.57
2018-09-03T00:21:50.863Z,3.20
2018-09-03T00:24:53.151Z,3.27
2018-09-03T00:27:55.361Z,3.90
2018-09-03T00:31:03.299Z,3.53
2018-09-03T00:34:11.033Z,3.30
2018-09-03T00:37:18.818Z,3.83
2018-09-03T00:40:26.573Z,3.47
2018-09-03T00:44:34.926Z,3.87
2018-09-03T00:47:37.185Z,3.67
2018-09-03T00:50:40.793Z,3.93
2018-09-03T00:53:43.029Z,3.60
2018-09-03T00:56:45.237Z,2.90
2018-09-03T00:59:47.483Z,3.27
2018-09-03T01:02:49.679Z,3.60
2018-09-03T01:05:51.975Z,3.20
2018-09-03T01:08:54.147Z,3.50
2018-09-03T01:11:56.360Z,3.53
2018-09-03T01:14:58.607Z,3.33
2018-09-03T01:18:01.810Z,3.30
2018-09-03T01:21:03.995Z,3.63
2018-09-03T01:24:06.484Z,4.00
2018-09-03T01:27:08.679Z,4.43
2018-09-03T01:30:10.986Z,4.23
2018-09-03T01:33:13.182Z,4.40
2018-09-03T01:36:15.668Z,4.00
2018-09-03T01:39:18.031Z,4.20
2018-09-03T01:42:20.263Z,4.70
2018-09-03T01:45:22.458Z,4.00
2018-09-03T01:48:24.639Z,4.67
2018-09-03T01:51:26.832Z,5.20
2018-09-03T01:54:29.086Z,4.87
2018-09-03T01:57:31.306Z,3.80
2018-09-03T02:00:33.452Z,3.40
2018-09-03T02:03:35.834Z,3.90
2018-09-03T02:06:38.128Z,3.23
2018-09-03T02:09:40.344Z,3.87
2018-09-03T02:12:42.552Z,3.50
2018-09-03T02:15:44.824Z,3.47
2018-09-03T02:18:47.053Z,3.47
2018-09-03T02:21:49.243Z,3.70
2018-09-03T02:24:51.389Z,3.90
2018-09-03T02:27:53.823Z,3.37
2018-09-03T02:30:56.068Z,3.57
2018-09-03T02:33:58.317Z,3.50
2018-09-03T02:37:00.511Z,3.17
2018-09-03T02:40:02.871Z,3.20
2018-09-03T02:43:05.133Z,3.60
2018-09-03T02:46:07.324Z,3.40
2018-09-03T02:49:09.564Z,3.30
2018-09-03T02:52:11.894Z,3.40
2018-09-03T02:55:14.098Z,3.57
2018-09-03T02:58:16.416Z,3.77
2018-09-03T03:01:18.660Z,4.20
2018-09-03T03:04:20.830Z,3.67
2018-09-03T03:07:23.134Z,3.20
2018-09-03T03:10:25.438Z,4.03
2018-09-03T03:13:27.682Z,4.00
2018-09-03T03:16:30.142Z,4.00
2018-09-03T03:19:32.526Z,3.67
2018-09-03T03:22:34.846Z,4.47
2018-09-03T03:25:37.016Z,4.07
2018-09-03T03:28:39.245Z,4.07
2018-09-03T03:31:41.582Z,4.30
2018-09-03T03:34:43.743Z,3.13
2018-09-03T03:37:47.920Z,3.90
2018-09-03T03:40:50.131Z,4.30
2018-09-03T03:43:52.286Z,5.17
2018-09-03T03:46:54.540Z,4.13
2018-09-03T03:49:56.740Z,4.50
2018-09-03T03:52:59.024Z,4.27
2018-09-03T03:56:01.170Z,4.43
2018-09-03T03:59:03.444Z,3.70
2018-09-03T04:02:05.827Z,4.17
2018-09-03T04:05:08.051Z,5.13
2018-09-03T04:08:10.229Z,4.87
2018-09-03T04:11:12.386Z,4.87
2018-09-03T04:14:14.545Z,5.07
2018-09-03T04:17:16.795Z,5.00
2018-09-03T04:20:18.941Z,4.53
2018-09-03T04:23:21.309Z,4.47
2018-09-03T04:26:23.420Z,4.40
2018-09-03T04:29:25.684Z,4.50
2018-09-03T04:32:27.954Z,4.60
2018-09-03T04:35:30.821Z,4.00
2018-09-03T04:38:33.064Z,4.40
2018-09-03T04:41:35.333Z,5.10
2018-09-03T04:44:37.544Z,5.63
2018-09-03T04:47:39.781Z,5.37
2018-09-03T04:50:41.910Z,5.13
2018-09-03T04:53:44.203Z,4.83
2018-09-03T04:56:46.375Z,4.97
2018-09-03T04:59:48.593Z,4.97
2018-09-03T05:02:50.769Z,4.93
2018-09-03T05:05:53.036Z,4.77
2018-09-03T05:08:55.229Z,5.90
2018-09-03T05:11:57.475Z,5.27
2018-09-03T05:14:59.642Z,5.53
2018-09-03T05:18:01.875Z,5.80
2018-09-03T05:21:04.154Z,6.47
2018-09-03T05:24:06.333Z,5.33
2018-09-03T05:27:08.540Z,5.63
2018-09-03T05:30:10.832Z,5.73
2018-09-03T05:33:13.144Z,5.50
2018-09-03T05:36:15.611Z,5.47
2018-09-03T05:39:17.856Z,5.40
2018-09-03T05:42:20.081Z,5.77
2018-09-03T05:45:22.279Z,5.60
2018-09-03T05:48:24.548Z,5.67
2018-09-03T05:51:26.776Z,5.50
2018-09-03T05:54:28.923Z,5.33
2018-09-03T05:57:31.172Z,4.87
2018-09-03T06:00:33.469Z,4.97
2018-09-03T06:03:35.681Z,4.90
2018-09-03T06:06:37.951Z,5.10
2018-09-03T06:09:40.161Z,5.47
2018-09-03T06:12:42.520Z,5.53
2018-09-03T06:15:44.934Z,5.73
2018-09-03T06:18:48.187Z,5.40
2018-09-03T06:21:50.464Z,5.40
2018-09-03T06:24:52.895Z,5.87
2018-09-03T06:27:55.235Z,4.97
2018-09-03T06:30:57.460Z,5.23
2018-09-03T06:33:59.634Z,4.90
2018-09-03T06:37:01.825Z,5.07
2018-09-03T06:40:03.995Z,6.00
2018-09-03T06:43:06.468Z,4.77
2018-09-03T06:46:08.903Z,5.30
2018-09-03T06:49:11.093Z,5.60
2018-09-03T06:52:13.391Z,5.23
2018-09-03T06:55:15.554Z,4.73
2018-09-03T06:58:17.951Z,5.03
2018-09-03T07:01:20.213Z,4.67
2018-09-03T07:04:22.492Z,5.73
2018-09-03T07:07:24.623Z,5.80
2018-09-03T07:10:26.939Z,5.83
2018-09-03T07:13:29.147Z,5.77
2018-09-03T07:16:31.421Z,5.50
2018-09-03T07:19:33.611Z,6.20
2018-09-03T07:22:35.766Z,5.03
2018-09-03T07:25:37.988Z,5.80
2018-09-03T07:28:40.235Z,6.00
2018-09-03T07:31:42.496Z,5.57
2018-09-03T07:34:44.781Z,5.53
2018-09-03T07:37:47.008Z,5.40
2018-09-03T07:40:49.263Z,6.50
2018-09-03T07:43:51.463Z,6.47
2018-09-03T07:46:53.646Z,6.57
2018-09-03T07:49:55.807Z,6.77
2018-09-03T07:52:57.970Z,6.13
2018-09-03T07:56:00.187Z,6.13
2018-09-03T07:59:02.664Z,6.40
2018-09-03T08:02:05.215Z,6.57
2018-09-03T08:05:07.563Z,7.00
2018-09-03T08:08:09.751Z,6.67
2018-09-03T08:11:12.137Z,6.00
2018-09-03T08:14:14.409Z,6.47
2018-09-03T08:17:47.272Z,7.27
2018-09-03T08:20:49.503Z,7.73
2018-09-03T08:23:51.633Z,7.17
2018-09-03T08:26:53.850Z,7.93
2018-09-03T08:29:56.041Z,9.40
2018-09-03T08:32:58.215Z,8.27
2018-09-03T08:36:00.440Z,9.17
2018-09-03T08:39:04.317Z,10.47
2018-09-03T08:42:07.324Z,10.53
2018-09-03T08:45:09.771Z,9.27
2018-09-03T08:48:11.955Z,9.97
2018-09-03T08:51:14.144Z,9.67
2018-09-03T08:54:16.291Z,9.40
2018-09-03T08:57:18.536Z,9.57
2018-09-03T09:00:20.796Z,10.07
2018-09-03T09:03:28.604Z,10.17
2018-09-03T09:06:30.803Z,9.67
2018-09-03T09:09:33.111Z,9.17
2018-09-03T09:12:35.348Z,10.00
2018-09-03T09:15:37.484Z,9.67
2018-09-03T09:18:39.802Z,10.23
2018-09-03T09:21:42.071Z,10.63
2018-09-03T09:24:44.283Z,9.73
2018-09-03T09:27:46.494Z,10.17
2018-09-03T09:30:48.722Z,9.27
2018-09-03T09:33:50.973Z,8.57
2018-09-03T09:36:53.407Z,9.57
2018-09-03T09:39:55.628Z,9.03
2018-09-03T09:42:58.272Z,8.97
2018-09-03T09:46:01.440Z,9.10
2018-09-03T09:49:03.631Z,9.37
2018-09-03T09:52:05.892Z,9.87
2018-09-03T09:55:08.132Z,9.17
2018-09-03T09:58:10.329Z,9.23
2018-09-03T10:01:18.005Z,9.47
2018-09-03T10:04:22.176Z,9.43
2018-09-03T10:07:24.433Z,9.20
2018-09-03T10:10:26.780Z,9.50
2018-09-03T10:13:29.104Z,8.73
2018-09-03T10:16:31.370Z,11.00
2018-09-03T10:19:33.563Z,11.90
2018-09-03T10:22:35.768Z,10.90
2018-09-03T10:25:37.948Z,11.20
2018-09-03T10:28:40.209Z,11.80
2018-09-03T10:31:42.413Z,12.07
2018-09-03T10:34:44.719Z,11.50
2018-09-03T10:37:47.108Z,11.43
2018-09-03T10:40:49.295Z,12.47
2018-09-03T10:43:51.446Z,12.60
2018-09-03T10:46:53.731Z,13.57
2018-09-03T10:49:56.439Z,12.03
2018-09-03T10:52:58.652Z,13.83
2018-09-03T10:56:00.931Z,13.80
2018-09-03T10:59:03.099Z,12.17
2018-09-03T11:02:05.452Z,11.93
2018-09-03T11:05:07.620Z,12.20
2018-09-03T11:08:18.965Z,11.13
2018-09-03T11:11:21.228Z,12.00
2018-09-03T11:14:23.493Z,11.73
2018-09-03T11:17:25.988Z,11.63
2018-09-03T11:20:29.243Z,12.23
2018-09-03T11:23:32.587Z,12.43
2018-09-03T11:26:34.768Z,12.77
2018-09-03T11:29:37.912Z,11.70
2018-09-03T11:32:44.668Z,11.63
2018-09-03T11:35:46.922Z,11.37
2018-09-03T11:38:49.165Z,11.20
2018-09-03T11:41:51.311Z,10.47
2018-09-03T11:44:53.490Z,9.50
2018-09-03T11:47:55.926Z,11.20
2018-09-03T11:50:58.231Z,11.03
2018-09-03T11:54:00.480Z,11.57
2018-09-03T11:57:02.803Z,11.33
2018-09-03T12:00:06.169Z,10.80
2018-09-03T12:03:08.416Z,10.83
2018-09-03T12:06:10.821Z,11.63
2018-09-03T12:09:12.991Z,12.17
2018-09-03T12:12:15.417Z,13.30
2018-09-03T12:15:24.620Z,11.77
2018-09-03T12:18:26.803Z,11.80
2018-09-03T12:21:29.024Z,11.40
2018-09-03T12:24:31.300Z,11.60
2018-09-03T12:27:33.536Z,11.13
2018-09-03T12:30:35.915Z,10.53
2018-09-03T12:33:38.193Z,11.33
2018-09-03T12:36:40.587Z,10.90
2018-09-03T12:39:42.817Z,11.23
2018-09-03T12:42:45.010Z,11.37
2018-09-03T12:45:53.838Z,11.97
2018-09-03T12:48:56.236Z,10.17
2018-09-03T12:51:58.638Z,10.30
2018-09-03T12:55:00.890Z,10.63
2018-09-03T12:58:03.744Z,11.83
2018-09-03T13:01:06.106Z,11.40
2018-09-03T13:04:08.367Z,11.40
2018-09-03T13:07:10.640Z,12.53
2018-09-03T13:10:12.977Z,11.40
2018-09-03T13:13:15.180Z,11.23
2018-09-03T13:16:17.455Z,11.00
2018-09-03T13:19:19.632Z,11.67
2018-09-03T13:22:21.806Z,11.40
2018-09-03T13:25:24.072Z,11.73
2018-09-03T13:28:26.302Z,12.93
2018-09-03T13:31:28.439Z,12.63
2018-09-03T13:34:30.741Z,12.73
2018-09-03T13:37:33.135Z,12.50
2018-09-03T13:40:35.407Z,12.10
2018-09-03T13:43:37.892Z,11.73
2018-09-03T13:46:40.141Z,12.93
2018-09-03T13:49:42.322Z,12.37
2018-09-03T13:55:55.624Z,11.30
2018-09-03T13:58:57.850Z,13.63
2018-09-03T14:02:00.098Z,13.07
2018-09-03T14:05:02.326Z,11.73
2018-09-03T14:08:04.556Z,12.83
2018-09-03T14:11:06.803Z,11.70
2018-09-03T14:14:09.143Z,12.07
2018-09-03T14:17:11.455Z,13.00
2018-09-03T14:20:13.666Z,12.67
2018-09-03T14:23:15.984Z,13.00
2018-09-03T14:26:18.175Z,13.33
2018-09-03T14:29:20.328Z,13.60
2018-09-03T14:32:22.687Z,12.53
2018-09-03T14:35:25.015Z,12.93
2018-09-03T14:38:27.356Z,12.23
2018-09-03T14:41:29.596Z,13.03
2018-09-03T14:44:31.828Z,13.33
2018-09-03T14:47:34.048Z,12.13
2018-09-03T14:50:36.259Z,12.00
2018-09-03T14:53:38.796Z,12.80
2018-09-03T14:56:41.107Z,13.17
2018-09-03T14:59:43.432Z,13.30
2018-09-03T15:02:45.871Z,12.47
2018-09-03T15:05:48.228Z,11.77
2018-09-03T15:08:50.417Z,11.97
2018-09-03T15:11:52.650Z,11.77
2018-09-03T15:14:54.959Z,11.47
2018-09-03T15:17:57.170Z,12.50
2018-09-03T15:20:59.471Z,11.23
2018-09-03T15:24:02.035Z,11.57
2018-09-03T15:27:04.451Z,10.87
2018-09-03T15:30:06.792Z,11.03
2018-09-03T15:33:09.012Z,11.50
2018-09-03T15:36:11.447Z,11.80
2018-09-03T15:39:13.737Z,11.40
2018-09-03T15:42:16.006Z,11.00
2018-09-03T15:45:18.308Z,11.60
2018-09-03T15:48:20.679Z,11.53
2018-09-03T15:51:23.117Z,12.23
2018-09-03T15:54:25.336Z,11.30
2018-09-03T15:57:27.670Z,11.87
2018-09-03T16:00:30.065Z,11.70
2018-09-03T16:03:32.227Z,12.80
2018-09-03T16:06:34.516Z,12.90
2018-09-03T16:09:36.650Z,12.53
2018-09-03T16:12:38.864Z,13.13
2018-09-03T16:15:41.154Z,12.30
2018-09-03T16:18:43.484Z,12.20
2018-09-03T16:21:45.681Z,11.20
2018-09-03T16:24:47.939Z,12.97
2018-09-03T16:27:50.138Z,13.00
2018-09-03T16:30:52.263Z,12.57
2018-09-03T16:33:54.522Z,12.57
2018-09-03T16:36:56.723Z,14.00
2018-09-03T16:39:59.049Z,12.67
2018-09-03T16:43:01.355Z,12.60
2018-09-03T16:46:03.650Z,13.07
2018-09-03T16:49:06.031Z,13.73
2018-09-03T16:52:08.187Z,13.70
2018-09-03T16:55:10.425Z,13.73
2018-09-03T16:58:12.625Z,13.47
2018-09-03T17:01:15.115Z,12.47
2018-09-03T17:04:17.293Z,11.20
2018-09-03T17:07:19.718Z,9.20
2018-09-03T17:10:21.893Z,7.00
2018-09-03T17:13:24.063Z,7.47
2018-09-03T17:16:26.229Z,7.00
2018-09-03T17:19:28.453Z,7.93
2018-09-03T17:22:30.724Z,7.37
2018-09-03T17:25:32.938Z,7.80
2018-09-03T17:28:35.129Z,7.70
2018-09-03T17:31:37.392Z,8.60
2018-09-03T17:34:39.672Z,8.00
2018-09-03T17:37:41.888Z,8.50
2018-09-03T17:40:44.092Z,8.67
2018-09-03T17:43:46.271Z,8.60
2018-09-03T17:46:48.472Z,9.43
2018-09-03T17:49:50.813Z,10.53
2018-09-03T17:52:53.019Z,9.17
2018-09-03T17:55:55.279Z,10.37
2018-09-03T17:58:57.570Z,10.00
2018-09-03T18:01:59.814Z,9.73
2018-09-03T18:05:03.613Z,11.40
2018-09-03T18:08:05.927Z,10.53
2018-09-03T18:11:08.265Z,10.40
2018-09-03T18:14:10.684Z,10.63
2018-09-03T18:17:13.172Z,10.27
2018-09-03T18:20:15.443Z,10.30
2018-09-03T18:23:17.711Z,10.60
2018-09-03T18:26:19.997Z,11.20
2018-09-03T18:29:22.223Z,10.43
2018-09-03T18:32:24.804Z,10.50
2018-09-03T18:35:27.284Z,10.47
2018-09-03T18:38:29.540Z,11.40
2018-09-03T18:41:31.764Z,11.30
2018-09-03T18:44:33.951Z,9.90
2018-09-03T18:47:36.167Z,10.27
2018-09-03T18:50:39.907Z,9.83
2018-09-03T18:53:42.104Z,10.20
2018-09-03T18:56:44.324Z,11.67
2018-09-03T18:59:46.654Z,12.13
2018-09-03T19:02:48.824Z,9.73
2018-09-03T19:05:51.135Z,11.97
2018-09-03T19:08:53.364Z,10.33
2018-09-03T19:11:55.560Z,10.27
2018-09-03T19:14:57.728Z,9.20
2018-09-03T19:17:59.977Z,11.30
2018-09-03T19:21:02.444Z,10.67
2018-09-03T19:24:04.630Z,10.50
2018-09-03T19:27:07.130Z,11.17
2018-09-03T19:30:09.472Z,11.40
2018-09-03T19:33:12.588Z,11.07
2018-09-03T19:36:14.851Z,9.83
2018-09-03T19:39:17.138Z,10.43
2018-09-03T19:42:19.412Z,10.13
2018-09-03T19:45:21.827Z,11.37
2018-09-03T19:48:24.040Z,10.90
2018-09-03T19:51:26.445Z,9.87
2018-09-03T19:54:28.759Z,9.17
2018-09-03T19:57:30.994Z,10.03
2018-09-03T20:00:33.341Z,9.40
2018-09-03T20:03:35.658Z,11.70
2018-09-03T20:06:37.959Z,9.57
2018-09-03T20:09:40.480Z,8.90
2018-09-03T20:12:42.745Z,9.37
2018-09-03T20:15:44.981Z,8.67
2018-09-03T20:18:47.172Z,10.10
2018-09-03T20:21:49.608Z,9.93
2018-09-03T20:24:51.865Z,11.00
2018-09-03T20:27:54.100Z,9.27
2018-09-03T20:30:56.401Z,11.53
2018-09-03T20:33:58.698Z,10.33
2018-09-03T20:37:01.195Z,11.43
2018-09-03T20:40:03.537Z,10.90
2018-09-03T20:43:05.941Z,11.57
2018-09-03T20:46:08.089Z,10.47
2018-09-03T20:49:10.292Z,13.60
2018-09-03T20:52:12.440Z,11.90
2018-09-03T20:55:14.847Z,12.07
2018-09-03T20:58:17.277Z,10.90
2018-09-03T21:01:19.685Z,12.57
2018-09-03T21:04:21.956Z,11.77
2018-09-03T21:07:24.196Z,12.03
2018-09-03T21:10:26.423Z,11.90
2018-09-03T21:13:28.728Z,13.03
2018-09-03T21:16:30.948Z,12.37
2018-09-03T21:19:33.143Z,12.40
2018-09-03T21:22:35.507Z,12.67
2018-09-03T21:25:37.744Z,11.83
2018-09-03T21:28:39.939Z,12.30
2018-09-03T21:31:42.062Z,12.67
2018-09-03T21:34:44.271Z,11.07
2018-09-03T21:37:46.510Z,12.50
2018-09-03T21:40:48.720Z,13.10
2018-09-03T21:43:51.031Z,13.50
2018-09-03T21:46:53.520Z,13.47
2018-09-03T21:49:55.682Z,12.03
2018-09-03T21:52:57.970Z,12.30
2018-09-03T21:56:00.750Z,12.47
2018-09-03T21:59:03.028Z,13.40
2018-09-03T22:02:07.778Z,13.43
2018-09-03T22:05:09.984Z,13.20
2018-09-03T22:08:12.182Z,14.07
2018-09-03T22:11:14.554Z,13.13
2018-09-03T22:14:16.734Z,12.67
2018-09-03T22:17:18.980Z,13.53
2018-09-03T22:20:21.260Z,14.03
2018-09-03T22:23:23.382Z,14.00
2018-09-03T22:26:25.685Z,11.13
2018-09-03T22:29:29.059Z,11.87
2018-09-03T22:32:31.341Z,13.60
2018-09-03T22:35:33.893Z,14.17
2018-09-03T22:38:36.213Z,15.33
2018-09-03T22:41:38.548Z,14.20
2018-09-03T22:44:40.762Z,14.20
2018-09-03T22:47:42.983Z,13.30
2018-09-03T22:50:45.154Z,11.53
2018-09-03T22:53:47.339Z,13.30
2018-09-03T22:56:49.498Z,14.33
2018-09-03T22:59:51.863Z,12.93
2018-09-03T23:02:54.027Z,14.03
2018-09-03T23:05:56.243Z,12.57
2018-09-03T23:08:58.527Z,14.20
2018-09-03T23:12:00.706Z,13.63
2018-09-03T23:15:02.928Z,13.23
2018-09-03T23:18:05.154Z,13.93
2018-09-03T23:21:07.447Z,13.90
2018-09-03T23:24:09.639Z,15.30
2018-09-03T23:27:11.826Z,14.23
2018-09-03T23:30:14.112Z,13.97
2018-09-03T23:33:16.244Z,12.70
2018-09-03T23:36:18.439Z,55.00
2018-09-03T23:39:20.835Z,12.03
2018-09-03T23:42:23.083Z,11.67
2018-09-03T23:45:25.345Z,11.37
2018-09-03T23:48:27.559Z,12.17
2018-09-03T23:51:29.847Z,10.47
2018-09-03T23:54:32.052Z,10.97
2018-09-03T23:57:34.314Z,10.57
